Bill Jr — WCO6976 — position and weather

sailwx.info

Track history (hours):
 
Tides and Currents Weather Stations Pressure Air Temp Water Temp Dewpoint Dewpoint Depression Visibility Wind Speed Wind Dir Waves Ship Positions

Bill Jr

Owner: DAWSON VESSELS INC, MOBILE, AL. More information available from US FCC via Universal Licensing System and Coast Guard Vessel Documentation Center.

Last reported at 2016-Aug-04 22:10 UTC. Time now 2016-Aug-27 16:56 UTC.
Position N 29°54' W 090°05'.
Warning: this ship's position is 22 days out of date.

Length 21 m.

MMSI: 366976750.

Date/timePositionNaut miles runAvg speedWind from/ knotsBaromVisibWave heightAir tempDewpointWater temp
2016-Aug-04 22:10N 29°54' W 090°05'0 0.0
2016-Aug-04 21:34N 29°54' W 090°05'0 0.0
2016-Aug-04 20:34N 29°54' W 090°05'0 0.0
2016-Aug-04 19:33N 29°54' W 090°05'0 0.0
2016-Aug-04 18:33N 29°54' W 090°05'0 0.0
2016-Aug-04 17:33N 29°54' W 090°05'0 0.0
2016-Aug-04 16:31N 29°54' W 090°05'0 0.0
2016-Aug-04 15:33N 29°54' W 090°05'0 0.0
2016-Aug-04 14:33N 29°54' W 090°05'0 0.0
2016-Aug-04 13:23N 29°54' W 090°05'0 0.0
2016-Aug-04 12:31N 29°54' W 090°05'0 0.0
2016-Aug-04 11:33N 29°54' W 090°05'0 0.0
2016-Aug-04 10:31N 29°54' W 090°05'0 0.0
2016-Aug-04 09:33N 29°54' W 090°05'0 0.0
2016-Aug-04 08:33N 29°54' W 090°05'0 0.0
2016-Aug-04 07:33N 29°54' W 090°05'0 0.0
2016-Aug-04 06:33N 29°54' W 090°05'0 0.1
2016-Aug-04 04:33N 29°55' W 090°05'3 3.0
2016-Aug-04 03:33N 29°56' W 090°08'1 1.1
2016-Aug-04 02:32N 29°57' W 090°08'1 0.6
2016-Aug-04 01:33N 29°56' W 090°09'3 3.5
2016-Aug-04 00:34N 29°55' W 090°05'0 0.3
2016-Aug-03 23:33N 29°54' W 090°05'0 0.0
2016-Aug-03 22:34N 29°54' W 090°05'0 0.0
2016-Aug-03 21:34N 29°54' W 090°05'0 0.0
2016-Aug-03 20:34N 29°54' W 090°05'0 0.0
2016-Aug-03 19:34N 29°54' W 090°05'0 0.0
2016-Aug-03 18:33N 29°54' W 090°05'1 1.0
2016-Aug-03 17:33N 29°54' W 090°06'  
2016-Jul-27 12:17N 29°58' W 090°14'4 0.1
2016-Jul-26 03:32N 29°57' W 090°09'1 0.7
2016-Jul-26 02:32N 29°57' W 090°08'  
Track history (hours):
 
Tides and Currents Weather Stations Pressure Air Temp Water Temp Dewpoint Dewpoint Depression Visibility Wind Speed Wind Dir Waves Ship Positions

Bill Jr

Owner: DAWSON VESSELS INC, MOBILE, AL. More information available from US FCC via Universal Licensing System and Coast Guard Vessel Documentation Center.

Last reported at 2016-Aug-04 22:10 UTC. Time now 2016-Aug-27 16:56 UTC.
Position N 29°54' W 090°05'.
Warning: this ship's position is 22 days out of date.

Length 21 m.

MMSI: 366976750.

Date/timePositionNaut miles runAvg speedWind from/ knotsBaromVisibWave heightAir tempDewpointWater temp
2016-Aug-04 22:10N 29°54' W 090°05'0 0.0
2016-Aug-04 21:34N 29°54' W 090°05'0 0.0
2016-Aug-04 20:34N 29°54' W 090°05'0 0.0
2016-Aug-04 19:33N 29°54' W 090°05'0 0.0
2016-Aug-04 18:33N 29°54' W 090°05'0 0.0
2016-Aug-04 17:33N 29°54' W 090°05'0 0.0
2016-Aug-04 16:31N 29°54' W 090°05'0 0.0
2016-Aug-04 15:33N 29°54' W 090°05'0 0.0
2016-Aug-04 14:33N 29°54' W 090°05'0 0.0
2016-Aug-04 13:23N 29°54' W 090°05'0 0.0
2016-Aug-04 12:31N 29°54' W 090°05'0 0.0
2016-Aug-04 11:33N 29°54' W 090°05'0 0.0
2016-Aug-04 10:31N 29°54' W 090°05'0 0.0
2016-Aug-04 09:33N 29°54' W 090°05'0 0.0
2016-Aug-04 08:33N 29°54' W 090°05'0 0.0
2016-Aug-04 07:33N 29°54' W 090°05'0 0.0
2016-Aug-04 06:33N 29°54' W 090°05'0 0.1
2016-Aug-04 04:33N 29°55' W 090°05'3 3.0
2016-Aug-04 03:33N 29°56' W 090°08'1 1.1
2016-Aug-04 02:32N 29°57' W 090°08'1 0.6
2016-Aug-04 01:33N 29°56' W 090°09'3 3.5
2016-Aug-04 00:34N 29°55' W 090°05'0 0.3
2016-Aug-03 23:33N 29°54' W 090°05'0 0.0
2016-Aug-03 22:34N 29°54' W 090°05'0 0.0
2016-Aug-03 21:34N 29°54' W 090°05'0 0.0
2016-Aug-03 20:34N 29°54' W 090°05'0 0.0
2016-Aug-03 19:34N 29°54' W 090°05'0 0.0
2016-Aug-03 18:33N 29°54' W 090°05'1 1.0
2016-Aug-03 17:33N 29°54' W 090°06'  
2016-Jul-27 12:17N 29°58' W 090°14'4 0.1
2016-Jul-26 03:32N 29°57' W 090°09'1 0.7
2016-Jul-26 02:32N 29°57' W 090°08'  

Dump ship's entire track history